createdAt,value
2022-12-01T15:37:20.705Z,34.55
2022-12-01T15:39:49.527Z,26.92
2022-12-01T15:42:30.488Z,27.52
2022-12-01T15:45:00.364Z,30.40
2022-12-01T15:47:32.631Z,29.27
2022-12-01T15:49:59.141Z,30.55
2022-12-01T15:52:28.082Z,31.55
2022-12-01T15:55:02.953Z,32.05
2022-12-01T15:57:29.466Z,31.58
2022-12-01T15:59:57.159Z,31.48
2022-12-01T16:02:23.743Z,31.90
2022-12-01T16:04:59.414Z,30.90
2022-12-01T16:08:04.427Z,31.58
2022-12-01T16:10:44.985Z,35.05
2022-12-01T16:13:29.933Z,33.50
2022-12-01T16:15:58.055Z,34.28
2022-12-01T16:18:45.078Z,38.05
2022-12-01T16:21:17.350Z,34.97
2022-12-01T16:23:43.814Z,34.88
2022-12-01T16:26:17.619Z,40.53
2022-12-01T16:28:45.565Z,35.80
2022-12-01T16:31:26.240Z,36.13
2022-12-01T16:34:13.765Z,34.03
2022-12-01T16:36:45.884Z,36.63
2022-12-01T16:39:13.568Z,35.53
2022-12-01T16:41:43.880Z,37.50
2022-12-01T16:44:37.318Z,37.70
2022-12-01T16:47:03.859Z,39.00
2022-12-01T16:49:34.335Z,38.10
2022-12-01T16:52:06.954Z,38.70
2022-12-01T16:54:48.347Z,38.47
2022-12-01T16:57:19.990Z,38.33
2022-12-01T16:59:49.502Z,40.00
2022-12-01T17:02:16.107Z,40.38
2022-12-01T17:04:42.656Z,36.75
2022-12-01T17:07:09.137Z,42.15
2022-12-01T17:09:35.808Z,42.00
2022-12-01T17:12:02.308Z,39.65
2022-12-01T17:14:28.755Z,38.40
2022-12-01T17:16:55.246Z,38.33
2022-12-01T17:19:21.688Z,41.83
2022-12-01T17:21:48.109Z,41.58
2022-12-01T17:24:18.869Z,40.83
2022-12-01T17:26:45.815Z,42.20
2022-12-01T17:29:12.348Z,41.58
2022-12-01T17:31:38.891Z,42.35
2022-12-01T17:34:05.481Z,39.35
2022-12-01T17:36:31.996Z,41.38
2022-12-01T17:38:58.820Z,41.50
2022-12-01T17:41:32.053Z,38.25
2022-12-01T17:43:58.590Z,38.15
2022-12-01T17:46:25.616Z,40.50
2022-12-01T17:48:52.199Z,38.63
2022-12-01T17:51:18.692Z,39.63
2022-12-01T17:53:45.215Z,42.10
2022-12-01T17:56:12.909Z,36.78
2022-12-01T17:58:39.644Z,35.53
2022-12-01T18:01:06.931Z,35.58
2022-12-01T18:03:33.522Z,38.00
2022-12-01T18:06:00.811Z,36.58
2022-12-01T18:08:28.093Z,33.35
2022-12-01T18:10:54.583Z,34.10
2022-12-01T18:13:21.815Z,32.97
2022-12-01T18:15:48.847Z,36.42
2022-12-01T18:18:15.565Z,34.70
2022-12-01T18:20:43.318Z,32.60
2022-12-01T18:23:10.254Z,33.38
2022-12-01T18:25:37.390Z,32.53
2022-12-01T18:28:04.766Z,34.65
2022-12-01T18:34:21.542Z,31.48
2022-12-01T18:36:48.100Z,31.52
2022-12-01T18:42:34.359Z,34.20
2022-12-01T18:45:00.881Z,34.65
2022-12-01T18:47:34.161Z,37.10
2022-12-01T18:50:00.680Z,35.25
2022-12-01T18:52:54.434Z,35.10
2022-12-01T18:55:58.542Z,32.47
2022-12-01T18:58:25.043Z,35.20
2022-12-01T19:36:07.294Z,38.53
2022-12-01T19:38:33.862Z,40.10
2022-12-01T19:57:52.429Z,35.67
2022-12-01T20:00:19.803Z,37.55
2022-12-01T20:02:46.321Z,38.92
2022-12-01T20:05:18.250Z,36.78
2022-12-01T20:07:44.728Z,37.53
2022-12-01T20:10:15.967Z,43.88
2022-12-01T20:12:42.477Z,41.75
2022-12-01T20:15:09.458Z,40.40
2022-12-01T20:17:36.988Z,40.13
2022-12-01T20:20:04.058Z,41.67
2022-12-01T20:22:31.592Z,44.65
2022-12-01T20:24:58.422Z,41.50
2022-12-01T20:27:52.751Z,38.17
2022-12-01T20:31:04.147Z,38.20
2022-12-01T20:33:36.983Z,36.92
2022-12-01T20:36:15.244Z,42.35
2022-12-01T20:38:48.885Z,39.85
2022-12-01T20:41:17.050Z,38.75
2022-12-01T20:43:43.653Z,42.38
2022-12-01T20:46:10.906Z,44.67
2022-12-01T20:48:37.560Z,43.30
2022-12-01T20:51:04.634Z,43.13
2022-12-01T20:53:32.259Z,41.08
2022-12-01T20:56:02.287Z,41.23
2022-12-01T20:58:31.070Z,41.97
2022-12-01T21:01:06.093Z,44.72
2022-12-01T21:07:52.828Z,41.65
2022-12-01T21:10:20.372Z,46.17
2022-12-01T21:13:07.935Z,51.17
2022-12-01T21:15:38.421Z,46.90
2022-12-01T21:18:09.189Z,45.95
2022-12-01T21:20:47.373Z,48.13
2022-12-01T21:23:45.601Z,48.53
2022-12-01T21:26:21.201Z,47.58
2022-12-01T21:28:47.721Z,49.58
2022-12-01T21:31:25.127Z,47.13
2022-12-01T21:33:56.253Z,50.28
2022-12-01T21:36:33.273Z,52.45
2022-12-01T21:39:02.244Z,50.70
2022-12-01T21:41:29.545Z,49.65
2022-12-01T21:44:00.146Z,54.05
2022-12-01T21:46:27.070Z,52.17
2022-12-01T21:48:54.408Z,52.15
2022-12-01T21:51:22.999Z,50.55
2022-12-01T21:56:23.780Z,55.20
2022-12-01T21:58:50.393Z,52.58
2022-12-01T22:01:22.920Z,53.85
2022-12-01T22:03:49.653Z,55.15
2022-12-01T22:06:30.316Z,53.38
2022-12-01T22:09:02.112Z,51.85
2022-12-01T22:11:29.536Z,53.72
2022-12-01T22:14:07.970Z,54.13
2022-12-01T22:19:02.421Z,55.40
2022-12-01T22:21:36.582Z,53.13
2022-12-01T22:24:09.247Z,55.95
2022-12-01T22:26:40.851Z,57.13
2022-12-01T22:29:16.496Z,54.97
2022-12-01T22:31:43.004Z,60.28
2022-12-01T22:34:11.804Z,59.63
2022-12-01T22:36:38.325Z,61.95
2022-12-01T22:39:11.322Z,60.40
2022-12-01T22:41:37.732Z,57.55
2022-12-01T22:44:04.477Z,64.80
2022-12-01T22:46:35.006Z,59.95
2022-12-01T22:49:08.160Z,57.38
2022-12-01T22:51:41.056Z,60.08
2022-12-01T22:54:10.318Z,60.47
2022-12-01T22:56:41.272Z,59.20
2022-12-01T22:59:43.267Z,60.33
2022-12-01T23:02:20.784Z,63.65
2022-12-01T23:04:49.004Z,63.22
2022-12-01T23:07:15.702Z,63.20
2022-12-01T23:09:43.195Z,55.90
2022-12-01T23:12:09.648Z,59.13
2022-12-01T23:14:38.678Z,60.40
2022-12-01T23:17:06.843Z,64.10
